Time;durP1;ratioP1;P1;durP2;ratioP2;P2;SDS_P1;SDS_P2;PMS_P1;PMS_P2;Temp;Humidity;BMP_temperature;BMP_pressure;BME280_temperature;BME280_humidity;BME280_pressure;Samples;Min_cycle;Max_cycle;Signal;HPM_P1;HPM_P2
2022/12/17 13:08:23;;;;;;;32.88;19.90;;;;;;;6.99;62.19;102441.81;5052986;28;20065;-74
2022/12/17 13:10:50;;;;;;;31.98;19.73;;;;;;;7.50;60.61;102438.50;5058327;28;20476;-73
2022/12/17 13:13:21;;;;;;;33.70;20.98;;;;;;;6.23;61.70;102433.91;5040184;28;20028;-74
2022/12/17 13:15:52;;;;;;;28.92;18.75;;;;;;;6.44;62.69;102433.38;5052228;28;20457;-72
2022/12/17 13:18:35;;;;;;;34.15;19.67;;;;;;;6.87;61.80;102433.28;5053150;28;20057;-70
2022/12/17 13:21:05;;;;;;;33.17;20.13;;;;;;;7.26;61.09;102444.19;5049688;28;20037;-71
2022/12/17 13:23:35;;;;;;;38.13;20.92;;;;;;;6.72;60.77;102438.53;5052387;28;20515;-73
2022/12/17 13:26:19;;;;;;;31.35;19.75;;;;;;;6.67;62.81;102438.22;5047702;28;20036;-73
2022/12/17 13:28:53;;;;;;;32.63;20.27;;;;;;;6.54;61.42;102431.41;5046647;28;20649;-73
2022/12/17 13:31:24;;;;;;;31.40;20.00;;;;;;;6.26;63.08;102431.47;5045486;28;20381;-73
2022/12/17 13:33:52;;;;;;;36.72;20.85;;;;;;;6.36;62.81;102426.00;5053742;28;20031;-74
2022/12/17 13:36:20;;;;;;;33.38;19.98;;;;;;;6.15;62.57;102435.16;5051705;28;20428;-71
2022/12/17 13:39:07;;;;;;;29.15;19.52;;;;;;;5.91;64.82;102435.44;5046909;28;20060;-73
2022/12/17 13:41:34;;;;;;;30.80;20.45;;;;;;;6.15;64.00;102435.16;5042033;28;20032;-74
2022/12/17 13:44:20;;;;;;;31.27;21.55;;;;;;;6.06;64.74;102425.97;5052093;28;20070;-73
2022/12/17 13:46:47;;;;;;;33.83;20.48;;;;;;;6.00;65.19;102432.53;5053647;28;20028;-74
2022/12/17 13:49:21;;;;;;;36.00;19.50;;;;;;;5.80;67.54;102429.53;5052921;28;20070;-72
2022/12/17 13:51:58;;;;;;;36.38;21.92;;;;;;;5.82;66.47;102429.63;5038548;28;20033;-72
2022/12/17 13:54:23;;;;;;;36.15;21.48;;;;;;;5.78;67.09;102427.66;5051902;28;20082;-73
2022/12/17 13:56:49;;;;;;;37.08;20.83;;;;;;;5.84;66.76;102436.75;5040770;28;20114;-73
2022/12/17 13:59:19;;;;;;;34.95;22.25;;;;;;;5.73;65.66;102440.44;5044810;28;20064;-73
2022/12/17 14:01:47;;;;;;;32.78;20.55;;;;;;;5.47;69.01;102436.19;5054983;28;20028;-73
2022/12/17 14:04:24;;;;;;;38.30;21.58;;;;;;;5.45;70.41;102437.81;5055391;28;20100;-73
2022/12/17 14:06:51;;;;;;;37.85;21.88;;;;;;;5.36;69.48;102436.41;5054563;28;20141;-74
2022/12/17 14:09:19;;;;;;;36.67;22.90;;;;;;;5.16;74.50;102440.34;5051592;28;20032;-73
2022/12/17 14:14:33;;;;;;;44.08;25.23;;;;;;;4.40;81.18;102439.72;5053530;28;20060;-74
2022/12/17 14:16:59;;;;;;;41.20;26.33;;;;;;;4.22;87.67;102449.81;5049442;28;20028;-73
2022/12/17 14:19:26;;;;;;;43.10;24.65;;;;;;;3.90;89.71;102443.25;5052331;28;20436;-72
2022/12/17 14:21:53;;;;;;;45.30;25.42;;;;;;;3.69;93.14;102454.00;5052208;28;20021;-73
2022/12/17 14:24:25;;;;;;;41.75;24.30;;;;;;;3.70;95.07;102449.69;5054123;28;20060;-73
2022/12/17 14:26:53;;;;;;;53.92;27.10;;;;;;;3.56;95.56;102459.13;5052702;28;20033;-72
2022/12/17 14:29:30;;;;;;;44.25;25.90;;;;;;;3.18;98.32;102463.38;5056015;28;20086;-73
2022/12/17 14:32:01;;;;;;;50.47;26.05;;;;;;;2.92;99.53;102464.06;5052622;28;20469;-72
2022/12/17 14:34:28;;;;;;;38.72;24.05;;;;;;;2.45;100.00;102459.72;5076975;28;21339;-73
2022/12/17 14:36:59;;;;;;;37.08;24.73;;;;;;;2.16;100.00;102470.50;5053838;28;20525;-72
2022/12/17 14:39:27;;;;;;;46.88;25.40;;;;;;;1.96;100.00;102466.34;5051530;28;20078;-73
2022/12/17 14:44:52;;;;;;;53.58;27.27;;;;;;;1.44;100.00;102469.25;5053888;28;20031;-74
2022/12/17 14:47:22;;;;;;;49.35;25.25;;;;;;;1.15;100.00;102470.41;5051336;28;20051;-72
2022/12/17 14:50:16;;;;;;;46.55;25.80;;;;;;;1.12;100.00;102464.97;5052147;28;20441;-75
2022/12/17 14:52:51;;;;;;;;;;;;;;;1.09;100.00;102474.19;5034355;28;20052;-73
2022/12/17 14:55:37;;;;;;;42.55;24.27;;;;;;;0.93;100.00;102470.34;5052059;28;19912;-72
2022/12/17 14:58:15;;;;;;;47.78;26.33;;;;;;;0.89;100.00;102473.44;5049866;28;20115;-74
2022/12/17 15:00:47;;;;;;;60.83;26.95;;;;;;;0.77;100.00;102469.84;5048222;28;20053;-72
2022/12/17 15:03:40;;;;;;;49.67;26.58;;;;;;;0.67;100.00;102484.63;5051592;28;20032;-73
2022/12/17 15:06:09;;;;;;;54.50;27.88;;;;;;;0.59;100.00;102490.88;5042051;28;20041;-73
2022/12/17 15:08:38;;;;;;;52.53;28.13;;;;;;;0.52;100.00;102490.22;5044526;28;20029;-73
2022/12/17 15:11:04;;;;;;;54.45;28.20;;;;;;;0.45;100.00;102494.91;5033774;28;20025;-74
2022/12/17 15:13:29;;;;;;;53.78;27.80;;;;;;;0.38;100.00;102496.81;5041009;28;20095;-73
2022/12/17 15:15:57;;;;;;;54.55;27.63;;;;;;;0.27;100.00;102490.75;5049808;28;20031;-72
2022/12/17 15:18:25;;;;;;;55.08;27.10;;;;;;;0.25;100.00;102490.63;5048004;28;20029;-72
2022/12/17 15:20:53;;;;;;;59.83;28.45;;;;;;;0.13;100.00;102492.16;5048513;28;20032;-73
2022/12/17 15:23:20;;;;;;;61.97;28.15;;;;;;;0.04;100.00;102501.72;5047832;28;20025;-72
2022/12/17 15:25:47;;;;;;;59.67;28.63;;;;;;;-0.01;100.00;102509.09;5045568;28;20381;-72
2022/12/17 15:28:13;;;;;;;57.42;27.65;;;;;;;-0.06;100.00;102511.28;5049462;28;20028;-72
2022/12/17 15:30:39;;;;;;;53.97;28.40;;;;;;;-0.14;100.00;102504.53;5041942;28;20089;-73
2022/12/17 15:33:08;;;;;;;61.13;28.77;;;;;;;-0.21;100.00;102504.78;5048258;28;20143;-74
2022/12/17 15:35:34;;;;;;;64.93;29.55;;;;;;;-0.29;100.00;102510.97;5063141;28;20048;-73
2022/12/17 15:38:00;;;;;;;66.07;30.52;;;;;;;-0.39;100.00;102514.44;5047492;28;20048;-72
2022/12/17 15:40:28;;;;;;;67.35;31.75;;;;;;;-0.50;100.00;102521.25;5049377;28;20024;-73
2022/12/17 15:43:11;;;;;;;63.50;30.35;;;;;;;-0.56;100.00;102520.69;5046863;28;20191;-72
2022/12/17 15:45:38;;;;;;;56.15;26.83;;;;;;;-0.62;100.00;102523.66;5047435;28;20074;-72
2022/12/17 15:48:04;;;;;;;61.00;29.15;;;;;;;-0.71;100.00;102521.13;5053846;28;20024;-72
2022/12/17 15:50:29;;;;;;;63.90;29.40;;;;;;;-0.76;100.00;102522.41;5048544;28;20106;-73
2022/12/17 15:52:54;;;;;;;66.18;30.25;;;;;;;-0.84;100.00;102520.84;5048407;28;20083;-73
2022/12/17 15:55:20;;;;;;;69.18;31.30;;;;;;;-0.87;100.00;102525.69;5049959;28;20484;-73
2022/12/17 15:57:45;;;;;;;60.58;28.10;;;;;;;-0.95;100.00;102524.09;5050144;28;20048;-73
2022/12/17 16:00:11;;;;;;;66.93;29.55;;;;;;;-1.03;100.00;102520.84;5049091;28;20130;-73
2022/12/17 16:02:37;;;;;;;65.25;28.80;;;;;;;-1.06;100.00;102520.56;5049888;28;20044;-74
2022/12/17 16:05:03;;;;;;;62.10;28.83;;;;;;;-1.09;100.00;102522.88;5049189;28;20454;-74
2022/12/17 16:07:28;;;;;;;74.70;30.27;;;;;;;-1.12;100.00;102518.31;5049156;28;20032;-73
2022/12/17 16:09:54;;;;;;;64.63;29.23;;;;;;;-1.16;100.00;102521.41;5049436;28;20037;-72
2022/12/17 16:12:19;;;;;;;66.22;28.35;;;;;;;-1.21;100.00;102526.16;5045537;28;20060;-73
2022/12/17 16:14:46;;;;;;;63.15;29.48;;;;;;;-1.23;100.00;102524.19;5054915;28;20028;-73
2022/12/17 16:17:12;;;;;;;69.13;29.13;;;;;;;-1.24;100.00;102525.84;5049702;28;20041;-73
2022/12/17 16:19:37;;;;;;;79.85;31.27;;;;;;;-1.27;100.00;102529.84;5050666;28;20849;-74
2022/12/17 16:22:03;;;;;;;73.78;29.52;;;;;;;-1.28;100.00;102534.09;5047789;28;20109;-76
2022/12/17 16:24:28;;;;;;;71.63;29.80;;;;;;;-1.33;100.00;102535.34;5055929;28;20024;-74
2022/12/17 16:26:54;;;;;;;66.53;29.35;;;;;;;-1.36;100.00;102530.81;5053279;28;20028;-73
2022/12/17 16:29:20;;;;;;;63.33;28.90;;;;;;;-1.40;100.00;102532.97;5051793;28;20112;-75
2022/12/17 16:31:45;;;;;;;66.68;31.10;;;;;;;-1.40;100.00;102528.72;5069401;28;20055;-73
2022/12/17 16:34:11;;;;;;;72.28;32.65;;;;;;;-1.46;100.00;102535.91;5055134;28;20031;-71
2022/12/17 16:36:37;;;;;;;83.65;33.38;;;;;;;-1.46;100.00;102535.91;5054450;28;21129;-73
2022/12/17 16:39:04;;;;;;;71.07;32.58;;;;;;;-1.47;100.00;102534.06;5049425;28;20060;-74
2022/12/17 16:41:30;;;;;;;70.97;31.83;;;;;;;-1.49;100.00;102529.53;5072438;28;20103;-74
2022/12/17 16:43:56;;;;;;;68.60;30.02;;;;;;;-1.54;100.00;102529.13;5054413;28;20024;-74
2022/12/17 16:46:34;;;;;;;72.68;30.10;;;;;;;-1.54;100.00;102531.69;5037585;28;20036;-73
2022/12/17 16:49:20;;;;;;;79.18;30.98;;;;;;;-1.57;100.00;102523.69;5046757;28;20028;-73
2022/12/17 16:51:52;;;;;;;64.57;28.60;;;;;;;-1.61;100.00;102524.16;5048133;28;20116;-74
2022/12/17 16:54:24;;;;;;;74.97;31.27;;;;;;;-1.65;100.00;102529.81;5046396;28;20382;-73
2022/12/17 16:56:51;;;;;;;68.80;30.77;;;;;;;-1.70;100.00;102532.88;5035804;28;20021;-74
2022/12/17 16:59:17;;;;;;;78.68;32.22;;;;;;;-1.74;100.00;102535.88;5054123;28;20084;-73
2022/12/17 17:01:45;;;;;;;74.75;30.85;;;;;;;-1.79;100.00;102533.66;5053753;28;20025;-73
2022/12/17 17:04:11;;;;;;;82.72;31.35;;;;;;;-1.84;100.00;102538.41;5035838;28;20109;-72
2022/12/17 17:06:49;;;;;;;78.95;30.05;;;;;;;-1.87;100.00;102543.28;5047070;28;20021;-73
2022/12/17 17:09:16;;;;;;;85.50;33.83;;;;;;;-1.93;100.00;102553.91;5052489;28;20035;-72
2022/12/17 17:11:42;;;;;;;73.35;30.42;;;;;;;-1.97;100.00;102546.63;5045980;28;20100;-75
2022/12/17 17:14:07;;;;;;;79.88;29.63;;;;;;;-1.99;100.00;102537.84;5050263;28;20025;-72
2022/12/17 17:16:33;;;;;;;79.90;30.23;;;;;;;-2.01;100.00;102548.78;5051630;28;20488;-73
2022/12/17 17:19:00;;;;;;;75.38;30.50;;;;;;;-2.05;100.00;102548.50;5054365;28;20486;-74
2022/12/17 17:21:37;;;;;;;80.25;28.25;;;;;;;-2.06;100.00;102548.38;5052292;28;20021;-73
2022/12/17 17:24:06;;;;;;;78.00;31.33;;;;;;;-2.12;100.00;102545.19;5050050;28;20461;-72
2022/12/17 17:26:33;;;;;;;76.45;29.58;;;;;;;-2.13;100.00;102546.88;5050474;28;20028;-72
2022/12/17 17:28:59;;;;;;;82.65;31.05;;;;;;;-2.12;100.00;102555.50;5043230;28;20507;-72
2022/12/17 17:31:25;;;;;;;76.60;30.95;;;;;;;-2.12;100.00;102546.09;5052814;28;20102;-72
2022/12/17 17:33:51;;;;;;;80.25;30.02;;;;;;;-2.17;100.00;102560.25;5049194;28;20065;-71
2022/12/17 17:36:27;;;;;;;86.38;29.95;;;;;;;-2.21;100.00;102556.44;5047600;28;20036;-71
2022/12/17 17:38:58;;;;;;;81.70;30.02;;;;;;;-2.18;100.00;102552.31;5053803;28;20021;-71
2022/12/17 17:41:26;;;;;;;79.07;31.10;;;;;;;-2.19;100.00;102554.00;5052716;28;20403;-71
2022/12/17 17:43:59;;;;;;;79.88;28.77;;;;;;;-2.28;100.00;102551.47;5050491;28;20027;-71
2022/12/17 17:46:27;;;;;;;93.75;31.20;;;;;;;-2.25;100.00;102555.97;5053131;28;20111;-71
2022/12/17 17:48:55;;;;;;;90.80;33.50;;;;;;;-2.31;100.00;102558.00;5052884;28;20028;-72
2022/12/17 17:51:23;;;;;;;89.15;31.33;;;;;;;-2.30;100.00;102552.97;5036767;28;20042;-71
2022/12/17 17:53:50;;;;;;;92.18;31.88;;;;;;;-2.30;100.00;102554.66;5051381;28;20397;-72
2022/12/17 17:56:21;;;;;;;93.38;33.55;;;;;;;-2.30;100.00;102554.66;5052884;28;20017;-72
2022/12/17 17:58:52;;;;;;;89.75;32.47;;;;;;;-2.31;100.00;102550.25;5052524;28;20069;-73
2022/12/17 18:01:21;;;;;;;95.22;33.28;;;;;;;-2.32;100.00;102548.44;5070251;28;20024;-73
2022/12/17 18:03:46;;;;;;;89.60;33.80;;;;;;;-2.30;100.00;102544.34;5058056;28;20036;-71
2022/12/17 18:06:13;;;;;;;92.82;31.83;;;;;;;-2.32;100.00;102541.63;5047765;28;20033;-71
2022/12/17 18:08:40;;;;;;;88.63;31.10;;;;;;;-2.31;100.00;102539.94;5051317;28;20044;-73
2022/12/17 18:11:10;;;;;;;90.05;34.38;;;;;;;-2.35;100.00;102550.72;5038923;28;20036;-72
2022/12/17 18:13:54;;;;;;;95.80;33.28;;;;;;;-2.35;100.00;102551.63;5047889;28;20025;-72
2022/12/17 18:16:24;;;;;;;101.72;31.10;;;;;;;-2.35;100.00;102545.56;5047585;28;20033;-70
2022/12/17 18:18:53;;;;;;;93.38;32.28;;;;;;;-2.39;100.00;102560.75;5034687;28;20530;-72
2022/12/17 18:21:19;;;;;;;87.32;30.98;;;;;;;-2.37;100.00;102548.91;5045469;28;20024;-70
2022/12/17 18:23:45;;;;;;;83.30;30.35;;;;;;;-2.35;100.00;102554.19;5052244;28;20079;-73
2022/12/17 18:26:17;;;;;;;92.53;32.20;;;;;;;-2.34;100.00;102557.72;5051804;28;20064;-71
2022/12/17 18:28:44;;;;;;;90.53;31.92;;;;;;;-2.41;100.00;102557.09;5049385;28;20430;-72
2022/12/17 18:31:17;;;;;;;96.03;32.45;;;;;;;-2.38;100.00;102554.81;5049358;28;20037;-71
2022/12/17 18:33:52;;;;;;;88.47;33.10;;;;;;;-2.41;100.00;102557.09;5052192;28;20025;-71
2022/12/17 18:36:23;;;;;;;88.68;32.78;;;;;;;-2.42;100.00;102560.44;5051291;28;20029;-71
2022/12/17 18:38:57;;;;;;;85.20;29.67;;;;;;;-2.39;100.00;102559.81;5051519;28;20033;-72
2022/12/17 18:44:07;;;;;;;92.47;28.85;;;;;;;-2.35;100.00;102566.19;5052026;28;20323;-72
2022/12/17 18:46:33;;;;;;;90.15;30.42;;;;;;;-2.39;100.00;102571.06;5050980;28;20017;-71
2022/12/17 18:49:01;;;;;;;99.88;32.13;;;;;;;-2.41;100.00;102577.72;5051507;28;20024;-72
2022/12/17 18:51:27;;;;;;;93.60;32.13;;;;;;;-2.40;100.00;102579.56;5057116;28;20056;-71
2022/12/17 18:54:01;;;;;;;104.55;35.88;;;;;;;-2.42;100.00;102578.47;5052109;28;20429;-73
2022/12/17 18:56:28;;;;;;;95.68;33.28;;;;;;;-2.45;100.00;102575.63;5051702;28;20029;-72
2022/12/17 18:58:55;;;;;;;83.93;31.83;;;;;;;-2.47;100.00;102577.16;5052501;28;20057;-71
2022/12/17 19:01:28;;;;;;;97.55;31.48;;;;;;;-2.49;100.00;102583.81;5049205;28;20099;-71
2022/12/17 19:03:54;;;;;;;97.80;32.70;;;;;;;-2.47;100.00;102587.47;5053223;28;20032;-70
2022/12/17 19:06:22;;;;;;;88.80;30.33;;;;;;;-2.51;100.00;102587.88;5048424;28;20036;-72
2022/12/17 19:08:48;;;;;;;87.93;30.00;;;;;;;-2.51;100.00;102590.47;5051182;28;20020;-71
2022/12/17 19:11:17;;;;;;;104.45;33.85;;;;;;;-2.47;100.00;102594.25;5049461;28;20106;-70
2022/12/17 19:13:43;;;;;;;88.28;32.58;;;;;;;-2.55;100.00;102598.66;5048664;28;20404;-72
2022/12/17 19:16:12;;;;;;;91.22;31.23;;;;;;;-2.56;100.00;102594.28;5049596;28;20021;-71
2022/12/17 19:18:38;;;;;;;88.30;31.80;;;;;;;-2.57;100.00;102595.03;5050600;28;20028;-71
2022/12/17 19:21:05;;;;;;;98.68;32.45;;;;;;;-2.55;100.00;102591.84;5049843;28;20040;-71
2022/12/17 19:23:31;;;;;;;104.40;33.10;;;;;;;-2.54;100.00;102592.75;5046593;28;20029;-71
2022/12/17 19:26:03;;;;;;;114.85;33.63;;;;;;;-2.56;100.00;102594.28;5050609;28;20025;-70
2022/12/17 19:28:32;;;;;;;97.60;34.92;;;;;;;-2.55;100.00;102601.22;5045135;28;20078;-71
2022/12/17 19:30:57;;;;;;;103.78;33.75;;;;;;;-2.60;100.00;102597.31;5050769;28;20033;-72
2022/12/17 19:33:22;;;;;;;96.72;32.80;;;;;;;-2.58;100.00;102603.53;5053267;28;20083;-71
2022/12/17 19:35:48;;;;;;;91.03;30.50;;;;;;;-2.58;100.00;102603.53;5048121;28;20021;-72
2022/12/17 19:38:13;;;;;;;91.80;31.65;;;;;;;-2.59;100.00;102604.28;5050979;28;20086;-71
2022/12/17 19:40:38;;;;;;;95.28;32.15;;;;;;;-2.58;100.00;102604.44;5050042;28;20044;-71
2022/12/17 19:43:05;;;;;;;104.53;33.38;;;;;;;-2.60;100.00;102605.06;5047094;28;20372;-71
2022/12/17 19:45:31;;;;;;;95.50;34.10;;;;;;;-2.66;100.00;102604.44;5044775;28;20521;-72
2022/12/17 19:47:56;;;;;;;114.70;35.95;;;;;;;-2.60;100.00;102612.78;5046790;28;20027;-70
2022/12/17 19:50:22;;;;;;;108.22;33.63;;;;;;;-2.63;100.00;102609.88;5038383;28;20021;-71
2022/12/17 19:52:47;;;;;;;96.75;33.53;;;;;;;-2.66;100.00;102610.50;5059068;28;20025;-71
2022/12/17 19:55:12;;;;;;;97.97;32.42;;;;;;;-2.64;100.00;102608.09;5054746;28;20025;-71
2022/12/17 19:57:38;;;;;;;95.55;33.35;;;;;;;-2.64;100.00;102608.09;5054830;28;20112;-70
2022/12/17 20:00:04;;;;;;;99.00;32.40;;;;;;;-2.64;100.00;102615.81;5055119;28;20048;-71
2022/12/17 20:02:29;;;;;;;100.80;30.55;;;;;;;-2.63;100.00;102615.97;5052788;28;20025;-70
2022/12/17 20:04:54;;;;;;;100.30;33.55;;;;;;;-2.68;100.00;102612.03;5055755;28;20045;-71
2022/12/17 20:07:20;;;;;;;88.38;30.65;;;;;;;-2.68;100.00;102613.69;5055292;28;20028;-70
2022/12/17 20:09:45;;;;;;;107.10;33.33;;;;;;;-2.74;100.00;102604.59;5061348;28;20079;-70
2022/12/17 20:12:11;;;;;;;100.97;32.00;;;;;;;-2.75;100.00;102607.03;5037783;28;20041;-70
2022/12/17 20:14:36;;;;;;;89.30;31.95;;;;;;;-2.78;100.00;102604.13;5053060;28;20416;-70
2022/12/17 20:17:06;;;;;;;95.45;30.63;;;;;;;-2.78;100.00;102610.22;5040865;28;20112;-70
2022/12/17 20:19:33;;;;;;;79.95;29.42;;;;;;;-2.76;100.00;102618.09;5053759;28;20033;-71
2022/12/17 20:22:01;;;;;;;104.47;35.10;;;;;;;-2.79;100.00;102615.22;5055304;28;20082;-71
2022/12/17 20:24:26;;;;;;;88.30;30.05;;;;;;;-2.81;100.00;102617.63;5048422;28;20503;-70
2022/12/17 20:26:52;;;;;;;93.05;30.30;;;;;;;-2.82;100.00;102618.41;5055066;28;20057;-70
2022/12/17 20:29:19;;;;;;;93.30;30.98;;;;;;;-2.82;100.00;102626.13;5044001;28;20062;-71
2022/12/17 20:31:47;;;;;;;85.72;29.48;;;;;;;-2.81;100.00;102627.91;5048393;28;20029;-71
2022/12/17 20:34:14;;;;;;;79.50;28.77;;;;;;;-2.85;100.00;102633.53;5049388;28;20086;-71
2022/12/17 20:36:40;;;;;;;86.72;29.80;;;;;;;-2.92;100.00;102633.69;5054323;28;20032;-69
2022/12/17 20:39:06;;;;;;;79.65;29.20;;;;;;;-2.92;100.00;102631.09;5042975;28;20419;-70
2022/12/17 20:41:33;;;;;;;95.93;30.13;;;;;;;-2.85;100.00;102642.94;5048569;28;20021;-71
2022/12/17 20:44:02;;;;;;;91.85;31.60;;;;;;;-2.83;100.00;102637.19;5053070;28;20032;-71
2022/12/17 20:46:28;;;;;;;94.10;30.55;;;;;;;-2.84;100.00;102632.78;5050790;28;20029;-70
2022/12/17 20:48:53;;;;;;;90.93;31.10;;;;;;;-2.85;100.00;102648.09;5048326;28;20025;-71
2022/12/17 20:51:24;;;;;;;88.88;30.33;;;;;;;-2.90;100.00;102643.38;5055601;28;20448;-71
2022/12/17 20:53:51;;;;;;;93.07;31.13;;;;;;;-2.90;100.00;102645.06;5050299;28;20025;-71
2022/12/17 20:56:20;;;;;;;84.18;31.52;;;;;;;-2.93;100.00;102635.34;5052797;28;20545;-70
2022/12/17 20:58:45;;;;;;;97.07;33.17;;;;;;;-2.93;100.00;102632.78;5058001;28;20855;-71
2022/12/17 21:01:12;;;;;;;95.00;30.52;;;;;;;-2.91;100.00;102635.50;5057187;28;20119;-70
2022/12/17 21:03:38;;;;;;;88.90;31.70;;;;;;;-2.92;100.00;102634.56;5041221;28;20048;-71
2022/12/17 21:06:08;;;;;;;91.63;33.00;;;;;;;-2.96;100.00;102642.75;5050337;28;20020;-71
2022/12/17 21:08:34;;;;;;;81.10;28.20;;;;;;;-2.98;100.00;102636.56;5048218;28;20033;-71
2022/12/17 21:11:00;;;;;;;75.88;27.02;;;;;;;-2.97;100.00;102642.59;5054983;28;20033;-71
2022/12/17 21:13:28;;;;;;;92.97;32.25;;;;;;;-3.00;100.00;102648.34;5058910;28;20376;-71
2022/12/17 21:15:55;;;;;;;96.88;33.20;;;;;;;-3.09;100.00;102648.34;5046752;28;20064;-70
2022/12/17 21:18:21;;;;;;;88.80;31.27;;;;;;;-3.10;100.00;102645.63;5050928;28;20087;-71
2022/12/17 21:21:08;;;;;;;92.25;29.77;;;;;;;-3.16;100.00;102645.94;5053046;28;20021;-71
2022/12/17 21:23:34;;;;;;;84.00;27.83;;;;;;;-3.16;100.00;102651.06;5065415;28;20036;-70
2022/12/17 21:26:02;;;;;;;79.95;28.05;;;;;;;-3.13;100.00;102659.09;5057404;28;20051;-71
2022/12/17 21:28:28;;;;;;;71.72;26.70;;;;;;;-3.15;100.00;102663.16;5052336;28;20029;-71
2022/12/17 21:30:54;;;;;;;73.22;27.60;;;;;;;-3.23;100.00;102669.22;5053009;28;20029;-70
2022/12/17 21:33:19;;;;;;;72.85;26.85;;;;;;;-3.23;100.00;102665.00;5052040;28;20083;-71
2022/12/17 21:35:45;;;;;;;73.15;25.63;;;;;;;-3.24;100.00;102668.31;5052735;28;20116;-70
2022/12/17 21:38:10;;;;;;;90.18;28.00;;;;;;;-3.26;100.00;102666.34;5056666;28;20021;-70
2022/12/17 21:40:35;;;;;;;84.90;28.23;;;;;;;-3.25;100.00;102670.75;5061202;28;20411;-70
2022/12/17 21:43:01;;;;;;;65.45;25.65;;;;;;;-3.30;100.00;102671.94;5053245;28;20083;-70
2022/12/17 21:45:34;;;;;;;82.68;27.33;;;;;;;-3.29;100.00;102668.59;5052449;28;20373;-71
2022/12/17 21:47:59;;;;;;;69.88;27.05;;;;;;;-3.29;100.00;102676.31;5051948;28;20039;-71
2022/12/17 21:50:24;;;;;;;74.80;25.92;;;;;;;-3.30;100.00;102677.06;5061937;28;20389;-70
2022/12/17 21:52:50;;;;;;;85.95;29.48;;;;;;;-3.36;100.00;102684.16;5053189;28;20029;-71
2022/12/17 21:55:15;;;;;;;90.50;29.67;;;;;;;-3.36;100.00;102687.66;5053520;28;20033;-70
2022/12/17 21:57:40;;;;;;;83.45;28.25;;;;;;;-3.33;100.00;102695.69;5052433;28;20040;-70
2022/12/17 22:00:07;;;;;;;86.30;28.23;;;;;;;-3.29;100.00;102699.50;5047946;28;20419;-72
2022/12/17 22:02:32;;;;;;;97.50;28.50;;;;;;;-3.31;100.00;102696.78;5055749;28;20037;-71
2022/12/17 22:04:57;;;;;;;92.35;31.25;;;;;;;-3.30;100.00;102702.81;5039575;28;20116;-71
2022/12/17 22:07:23;;;;;;;85.72;29.15;;;;;;;-3.34;100.00;102690.38;5052086;28;20055;-70
2022/12/17 22:09:48;;;;;;;70.10;25.90;;;;;;;-3.34;100.00;102695.53;5053979;28;20068;-70
2022/12/17 22:14:57;;;;;;;78.72;29.50;;;;;;;-3.43;100.00;102699.00;5054478;28;20116;-71
2022/12/17 22:17:22;;;;;;;80.03;28.15;;;;;;;-3.43;100.00;102692.91;5048153;28;20037;-69
2022/12/17 22:19:48;;;;;;;76.28;26.52;;;;;;;-3.46;100.00;102696.09;5051780;28;20360;-69
2022/12/17 22:22:13;;;;;;;66.40;27.55;;;;;;;-3.48;100.00;102692.44;5056488;28;20048;-69
2022/12/17 22:24:38;;;;;;;88.80;27.23;;;;;;;-3.48;100.00;102702.75;5051960;28;20393;-70
2022/12/17 22:27:04;;;;;;;81.03;28.00;;;;;;;-3.49;100.00;102703.47;5039054;28;20353;-71
2022/12/17 22:34:57;;;;;;;78.50;27.65;;;;;;;-3.59;100.00;102700.72;5052186;28;20043;-70
2022/12/17 22:37:23;;;;;;;77.65;27.35;;;;;;;-3.61;100.00;102694.50;5051854;28;20029;-69
2022/12/17 22:39:48;;;;;;;73.97;25.98;;;;;;;-3.61;100.00;102694.50;5062610;28;20032;-70
2022/12/17 22:44:57;;;;;;;77.93;28.15;;;;;;;-3.62;100.00;102672.09;5041892;28;20040;-70
2022/12/17 22:47:23;;;;;;;93.55;28.27;;;;;;;-3.62;100.00;102687.53;5037005;28;20373;-69
2022/12/17 22:49:48;;;;;;;87.03;29.13;;;;;;;-3.63;100.00;102670.28;5039632;28;20064;-70
2022/12/17 22:52:13;;;;;;;94.68;28.77;;;;;;;-3.59;100.00;102667.28;5048172;28;20029;-69
2022/12/17 22:54:39;;;;;;;89.00;29.40;;;;;;;-3.62;100.00;102669.50;5052757;28;20032;-68
2022/12/17 22:57:04;;;;;;;82.68;27.05;;;;;;;-3.66;100.00;102670.88;5052102;28;20025;-70
2022/12/17 22:59:30;;;;;;;92.78;28.83;;;;;;;-3.69;100.00;102686.00;5061392;28;20139;-68
2022/12/17 23:01:55;;;;;;;89.03;29.73;;;;;;;-3.67;100.00;102693.88;5050650;28;20092;-70
2022/12/17 23:04:21;;;;;;;84.50;26.92;;;;;;;-3.67;100.00;102699.03;5051472;28;20499;-69
2022/12/17 23:06:46;;;;;;;79.07;26.20;;;;;;;-3.69;100.00;102695.38;5051104;28;20465;-69
2022/12/17 23:09:12;;;;;;;90.93;27.90;;;;;;;-3.67;100.00;102699.03;5050772;28;20522;-69
2022/12/17 23:11:38;;;;;;;84.05;27.17;;;;;;;-3.66;100.00;102693.09;5049652;28;20036;-69
2022/12/17 23:14:07;;;;;;;85.90;27.13;;;;;;;-3.66;100.00;102687.97;5046002;28;20384;-70
2022/12/17 23:16:32;;;;;;;79.10;27.80;;;;;;;-3.66;100.00;102678.59;5043119;28;20025;-70
2022/12/17 23:19:00;;;;;;;78.45;26.70;;;;;;;-3.62;100.00;102677.25;5042318;28;20102;-69
2022/12/17 23:21:26;;;;;;;81.35;25.77;;;;;;;-3.69;100.00;102683.44;5048655;28;20025;-69
2022/12/17 23:23:53;;;;;;;86.22;26.08;;;;;;;-3.65;100.00;102677.88;5058186;28;20035;-69
2022/12/17 23:26:21;;;;;;;80.07;25.67;;;;;;;-3.62;100.00;102674.66;5049727;28;20473;-69
2022/12/17 23:28:51;;;;;;;79.53;27.17;;;;;;;-3.64;100.00;102678.75;5050666;28;20023;-70
2022/12/17 23:31:19;;;;;;;84.70;27.90;;;;;;;-3.67;100.00;102678.44;5051859;28;20039;-69
2022/12/17 23:33:45;;;;;;;89.68;28.05;;;;;;;-3.66;100.00;102670.88;5050778;28;20020;-69
2022/12/17 23:36:13;;;;;;;81.55;28.58;;;;;;;-3.63;100.00;102663.47;5050018;28;20460;-69
2022/12/17 23:38:39;;;;;;;81.35;26.40;;;;;;;-3.65;100.00;102664.06;5051164;28;20021;-69
2022/12/17 23:41:07;;;;;;;82.03;27.33;;;;;;;-3.66;100.00;102664.81;5050844;28;20099;-70
2022/12/17 23:43:33;;;;;;;79.45;29.40;;;;;;;-3.66;100.00;102669.97;5049943;28;20609;-69
2022/12/17 23:45:58;;;;;;;72.40;27.55;;;;;;;-3.64;100.00;102673.63;5050277;28;20083;-68
2022/12/17 23:48:28;;;;;;;85.78;27.10;;;;;;;-3.64;100.00;102674.50;5033939;28;20064;-68
2022/12/17 23:50:53;;;;;;;75.53;26.85;;;;;;;-3.61;100.00;102664.56;5048801;28;20032;-70
2022/12/17 23:53:19;;;;;;;84.82;28.55;;;;;;;-3.60;100.00;102660.31;5050421;28;20385;-69
2022/12/17 23:55:44;;;;;;;81.22;26.25;;;;;;;-3.61;100.00;102653.34;5052814;28;20376;-69
2022/12/17 23:58:09;;;;;;;66.40;23.27;;;;;;;-3.60;100.00;102663.78;5064307;28;20040;-69
